sensor_id;sensor_type;location;lat;lon;timestamp;pressure;altitude;pressure_sealevel;temperature;humidity
75008;BME280;63554;48.940;12.050;2023-03-23T00:01:27;96888.53;;;7.49;77.27
75008;BME280;63554;48.940;12.050;2023-03-23T00:05:30;96875.09;;;7.42;77.57
75008;BME280;63554;48.940;12.050;2023-03-23T00:09:33;96882.53;;;7.40;77.41
75008;BME280;63554;48.940;12.050;2023-03-23T00:13:42;96888.38;;;7.37;77.81
75008;BME280;63554;48.940;12.050;2023-03-23T00:17:43;96890.84;;;7.32;78.17
75008;BME280;63554;48.940;12.050;2023-03-23T00:21:46;96879.88;;;7.33;78.18
75008;BME280;63554;48.940;12.050;2023-03-23T00:25:50;96875.53;;;7.32;77.96
75008;BME280;63554;48.940;12.050;2023-03-23T00:29:53;96876.78;;;7.30;78.20
75008;BME280;63554;48.940;12.050;2023-03-23T00:33:55;96878.03;;;7.27;78.50
75008;BME280;63554;48.940;12.050;2023-03-23T00:37:58;96877.81;;;7.22;78.47
75008;BME280;63554;48.940;12.050;2023-03-23T00:42:01;96883.22;;;7.22;78.58
75008;BME280;63554;48.940;12.050;2023-03-23T00:46:03;96878.06;;;7.14;78.52
75008;BME280;63554;48.940;12.050;2023-03-23T00:50:09;96865.84;;;7.11;78.61
75008;BME280;63554;48.940;12.050;2023-03-23T00:54:13;96868.97;;;7.08;78.79
75008;BME280;63554;48.940;12.050;2023-03-23T00:58:16;96866.88;;;7.10;78.55
75008;BME280;63554;48.940;12.050;2023-03-23T01:02:18;96865.44;;;7.15;78.28
75008;BME280;63554;48.940;12.050;2023-03-23T01:06:19;96856.09;;;7.17;77.98
75008;BME280;63554;48.940;12.050;2023-03-23T01:10:21;96862.31;;;7.11;78.02
75008;BME280;63554;48.940;12.050;2023-03-23T01:14:26;96863.78;;;7.07;78.64
75008;BME280;63554;48.940;12.050;2023-03-23T01:18:28;96856.53;;;7.07;78.23
75008;BME280;63554;48.940;12.050;2023-03-23T01:22:31;96848.44;;;7.07;78.14
75008;BME280;63554;48.940;12.050;2023-03-23T01:26:33;96843.31;;;7.06;77.99
75008;BME280;63554;48.940;12.050;2023-03-23T01:30:36;96842.06;;;7.02;77.94
75008;BME280;63554;48.940;12.050;2023-03-23T01:34:37;96850.56;;;6.99;77.93
75008;BME280;63554;48.940;12.050;2023-03-23T01:38:39;96840.63;;;6.92;78.12
75008;BME280;63554;48.940;12.050;2023-03-23T01:42:41;96834.84;;;6.89;78.34
75008;BME280;63554;48.940;12.050;2023-03-23T01:46:44;96841.03;;;6.89;79.21
75008;BME280;63554;48.940;12.050;2023-03-23T01:50:53;96838.34;;;6.89;79.33
75008;BME280;63554;48.940;12.050;2023-03-23T01:54:57;96845.41;;;6.90;79.10
75008;BME280;63554;48.940;12.050;2023-03-23T01:58:59;96827.38;;;6.91;78.77
75008;BME280;63554;48.940;12.050;2023-03-23T02:03:02;96827.19;;;6.92;78.88
75008;BME280;63554;48.940;12.050;2023-03-23T02:07:05;96829.06;;;6.92;78.62
75008;BME280;63554;48.940;12.050;2023-03-23T02:11:13;96830.69;;;6.93;78.49
75008;BME280;63554;48.940;12.050;2023-03-23T02:15:15;96835.03;;;6.87;78.18
75008;BME280;63554;48.940;12.050;2023-03-23T02:19:36;96839.81;;;6.85;78.43
75008;BME280;63554;48.940;12.050;2023-03-23T02:23:54;96837.34;;;6.77;78.76
75008;BME280;63554;48.940;12.050;2023-03-23T02:28:19;96835.25;;;6.79;78.98
75008;BME280;63554;48.940;12.050;2023-03-23T02:32:56;96845.22;;;6.79;78.61
75008;BME280;63554;48.940;12.050;2023-03-23T02:37:03;96831.13;;;6.77;78.69
75008;BME280;63554;48.940;12.050;2023-03-23T02:41:08;96836.09;;;6.80;79.08
75008;BME280;63554;48.940;12.050;2023-03-23T02:45:13;96843.13;;;6.81;78.99
75008;BME280;63554;48.940;12.050;2023-03-23T02:49:17;96830.31;;;6.83;78.90
75008;BME280;63554;48.940;12.050;2023-03-23T02:53:23;96833.19;;;6.81;78.78
75008;BME280;63554;48.940;12.050;2023-03-23T02:57:27;96827.41;;;6.84;78.71
75008;BME280;63554;48.940;12.050;2023-03-23T03:01:51;96827.59;;;6.89;78.69
75008;BME280;63554;48.940;12.050;2023-03-23T03:06:02;96821.19;;;6.90;78.61
75008;BME280;63554;48.940;12.050;2023-03-23T03:10:14;96824.09;;;6.89;78.21
75008;BME280;63554;48.940;12.050;2023-03-23T03:14:21;96827.19;;;6.92;78.28
75008;BME280;63554;48.940;12.050;2023-03-23T03:18:27;96830.50;;;6.95;77.80
75008;BME280;63554;48.940;12.050;2023-03-23T03:22:31;96819.53;;;6.96;78.57
75008;BME280;63554;48.940;12.050;2023-03-23T03:26:34;96834.63;;;6.97;78.33
75008;BME280;63554;48.940;12.050;2023-03-23T03:30:37;96839.78;;;6.99;78.37
75008;BME280;63554;48.940;12.050;2023-03-23T03:34:40;96833.59;;;6.98;78.18
75008;BME280;63554;48.940;12.050;2023-03-23T03:38:43;96845.59;;;7.02;78.41
75008;BME280;63554;48.940;12.050;2023-03-23T03:42:46;96841.44;;;7.00;78.80
75008;BME280;63554;48.940;12.050;2023-03-23T03:46:48;96836.28;;;6.91;79.20
75008;BME280;63554;48.940;12.050;2023-03-23T03:50:50;96853.03;;;6.93;79.75
75008;BME280;63554;48.940;12.050;2023-03-23T03:54:52;96837.31;;;6.90;79.63
75008;BME280;63554;48.940;12.050;2023-03-23T03:58:55;96819.53;;;6.89;79.71
75008;BME280;63554;48.940;12.050;2023-03-23T04:02:57;96822.22;;;6.76;79.86
75008;BME280;63554;48.940;12.050;2023-03-23T04:07:00;96832.59;;;6.72;80.26
75008;BME280;63554;48.940;12.050;2023-03-23T04:11:02;96825.13;;;6.81;80.10
75008;BME280;63554;48.940;12.050;2023-03-23T04:15:06;96829.44;;;6.96;79.55
75008;BME280;63554;48.940;12.050;2023-03-23T04:19:08;96829.66;;;7.01;79.39
75008;BME280;63554;48.940;12.050;2023-03-23T04:23:10;96847.25;;;6.97;79.75
75008;BME280;63554;48.940;12.050;2023-03-23T04:27:12;96846.41;;;6.89;80.13
75008;BME280;63554;48.940;12.050;2023-03-23T04:31:15;96849.31;;;6.88;80.44
75008;BME280;63554;48.940;12.050;2023-03-23T04:35:18;96831.50;;;6.93;80.58
75008;BME280;63554;48.940;12.050;2023-03-23T04:39:20;96830.69;;;6.93;80.68
75008;BME280;63554;48.940;12.050;2023-03-23T04:43:22;96838.34;;;6.89;81.24
75008;BME280;63554;48.940;12.050;2023-03-23T04:47:26;96835.47;;;6.91;81.54
75008;BME280;63554;48.940;12.050;2023-03-23T04:51:29;96838.16;;;6.84;81.35
75008;BME280;63554;48.940;12.050;2023-03-23T04:55:33;96833.41;;;6.80;82.34
75008;BME280;63554;48.940;12.050;2023-03-23T04:59:36;96836.09;;;6.80;84.45
75008;BME280;63554;48.940;12.050;2023-03-23T05:03:39;96846.44;;;6.83;83.21
75008;BME280;63554;48.940;12.050;2023-03-23T05:07:41;96853.44;;;7.10;82.96
75008;BME280;63554;48.940;12.050;2023-03-23T05:11:43;96844.53;;;7.10;81.31
75008;BME280;63554;48.940;12.050;2023-03-23T05:15:45;96850.94;;;7.09;80.87
75008;BME280;63554;48.940;12.050;2023-03-23T05:19:48;96835.84;;;7.08;80.59
75008;BME280;63554;48.940;12.050;2023-03-23T05:23:49;96836.28;;;6.98;81.13
75008;BME280;63554;48.940;12.050;2023-03-23T05:27:55;96839.59;;;6.93;80.88
75008;BME280;63554;48.940;12.050;2023-03-23T05:31:56;96831.53;;;7.00;80.87
75008;BME280;63554;48.940;12.050;2023-03-23T05:36:01;96830.88;;;7.05;80.58
75008;BME280;63554;48.940;12.050;2023-03-23T05:40:05;96829.81;;;7.12;79.90
75008;BME280;63554;48.940;12.050;2023-03-23T05:44:08;96822.34;;;7.21;79.80
75008;BME280;63554;48.940;12.050;2023-03-23T05:48:09;96817.56;;;7.30;78.96
75008;BME280;63554;48.940;12.050;2023-03-23T05:52:12;96814.63;;;7.38;78.22
75008;BME280;63554;48.940;12.050;2023-03-23T05:56:14;96817.31;;;7.45;78.67
75008;BME280;63554;48.940;12.050;2023-03-23T06:00:16;96809.84;;;7.47;77.89
75008;BME280;63554;48.940;12.050;2023-03-23T06:04:23;96812.50;;;7.53;77.75
75008;BME280;63554;48.940;12.050;2023-03-23T06:08:26;96814.53;;;7.65;77.76
75008;BME280;63554;48.940;12.050;2023-03-23T06:12:28;96810.38;;;7.69;78.65
75008;BME280;63554;48.940;12.050;2023-03-23T06:16:30;96797.31;;;7.72;78.07
75008;BME280;63554;48.940;12.050;2023-03-23T06:20:32;96802.59;;;7.86;76.75
75008;BME280;63554;48.940;12.050;2023-03-23T06:24:36;96798.41;;;7.97;76.75
75008;BME280;63554;48.940;12.050;2023-03-23T06:28:38;96803.72;;;8.10;77.03
75008;BME280;63554;48.940;12.050;2023-03-23T06:32:41;96801.34;;;8.20;75.96
75008;BME280;63554;48.940;12.050;2023-03-23T06:36:47;96795.81;;;8.40;74.93
75008;BME280;63554;48.940;12.050;2023-03-23T06:40:52;96806.03;;;8.63;74.41
75008;BME280;63554;48.940;12.050;2023-03-23T06:44:54;96809.97;;;8.86;74.98
75008;BME280;63554;48.940;12.050;2023-03-23T06:48:57;96802.88;;;9.10;73.04
75008;BME280;63554;48.940;12.050;2023-03-23T06:52:59;96798.03;;;9.37;71.45
75008;BME280;63554;48.940;12.050;2023-03-23T06:57:02;96809.63;;;9.56;73.58
75008;BME280;63554;48.940;12.050;2023-03-23T07:01:04;96802.63;;;9.67;73.93
75008;BME280;63554;48.940;12.050;2023-03-23T07:05:07;96807.50;;;9.77;73.99
75008;BME280;63554;48.940;12.050;2023-03-23T07:09:10;96807.19;;;9.85;72.88
75008;BME280;63554;48.940;12.050;2023-03-23T07:13:13;96796.41;;;9.97;70.52
75008;BME280;63554;48.940;12.050;2023-03-23T07:17:15;96796.22;;;10.10;69.35
75008;BME280;63554;48.940;12.050;2023-03-23T07:21:17;96802.25;;;10.24;68.66
75008;BME280;63554;48.940;12.050;2023-03-23T07:25:18;96818.63;;;10.29;67.75
75008;BME280;63554;48.940;12.050;2023-03-23T07:29:22;96818.78;;;10.34;68.33
75008;BME280;63554;48.940;12.050;2023-03-23T07:33:24;96810.81;;;10.39;68.89
75008;BME280;63554;48.940;12.050;2023-03-23T07:37:27;96810.47;;;10.47;68.67
75008;BME280;63554;48.940;12.050;2023-03-23T07:41:30;96818.13;;;10.51;68.54
75008;BME280;63554;48.940;12.050;2023-03-23T07:45:33;96809.53;;;10.54;68.84
75008;BME280;63554;48.940;12.050;2023-03-23T07:49:34;96809.41;;;10.60;68.41
75008;BME280;63554;48.940;12.050;2023-03-23T07:53:37;96824.38;;;10.63;68.63
75008;BME280;63554;48.940;12.050;2023-03-23T07:57:39;96816.25;;;10.63;68.62
75008;BME280;63554;48.940;12.050;2023-03-23T08:01:42;96829.66;;;10.69;68.74
75008;BME280;63554;48.940;12.050;2023-03-23T08:05:43;96822.63;;;10.80;68.49
75008;BME280;63554;48.940;12.050;2023-03-23T08:09:45;96842.03;;;10.89;69.09
75008;BME280;63554;48.940;12.050;2023-03-23T08:13:47;96844.16;;;10.99;68.36
75008;BME280;63554;48.940;12.050;2023-03-23T08:17:50;96854.41;;;11.08;67.95
75008;BME280;63554;48.940;12.050;2023-03-23T08:21:52;96854.91;;;11.17;68.01
75008;BME280;63554;48.940;12.050;2023-03-23T08:25:54;96859.09;;;11.25;68.00
75008;BME280;63554;48.940;12.050;2023-03-23T08:29:57;96854.19;;;11.34;68.23
75008;BME280;63554;48.940;12.050;2023-03-23T08:34:00;96865.94;;;11.51;67.67
75008;BME280;63554;48.940;12.050;2023-03-23T08:38:05;96844.09;;;11.70;67.27
75008;BME280;63554;48.940;12.050;2023-03-23T08:42:06;96845.59;;;11.89;66.84
75008;BME280;63554;48.940;12.050;2023-03-23T08:46:08;96853.00;;;12.05;65.89
75008;BME280;63554;48.940;12.050;2023-03-23T08:50:16;96841.03;;;12.18;65.63
75008;BME280;63554;48.940;12.050;2023-03-23T08:54:19;96837.50;;;12.35;64.71
75008;BME280;63554;48.940;12.050;2023-03-23T08:58:20;96851.34;;;12.50;64.53
75008;BME280;63554;48.940;12.050;2023-03-23T09:02:23;96858.44;;;12.68;63.13
75008;BME280;63554;48.940;12.050;2023-03-23T09:06:26;96865.00;;;12.84;62.94
75008;BME280;63554;48.940;12.050;2023-03-23T09:10:28;96860.72;;;12.88;62.60
75008;BME280;63554;48.940;12.050;2023-03-23T09:14:30;96871.97;;;12.97;62.74
75008;BME280;63554;48.940;12.050;2023-03-23T09:18:32;96878.72;;;13.11;62.80
75008;BME280;63554;48.940;12.050;2023-03-23T09:22:36;96866.69;;;13.24;62.42
75008;BME280;63554;48.940;12.050;2023-03-23T09:26:38;96863.44;;;13.39;61.44
75008;BME280;63554;48.940;12.050;2023-03-23T09:30:41;96871.28;;;13.57;61.67
75008;BME280;63554;48.940;12.050;2023-03-23T09:34:44;96867.69;;;13.74;60.18
75008;BME280;63554;48.940;12.050;2023-03-23T09:38:47;96860.28;;;13.91;60.04
75008;BME280;63554;48.940;12.050;2023-03-23T09:43:24;96846.69;;;14.13;59.78
75008;BME280;63554;48.940;12.050;2023-03-23T09:47:35;96852.66;;;14.37;59.52
75008;BME280;63554;48.940;12.050;2023-03-23T09:51:42;96852.16;;;14.68;58.83
75008;BME280;63554;48.940;12.050;2023-03-23T09:55:46;96859.22;;;14.96;58.25
75008;BME280;63554;48.940;12.050;2023-03-23T09:59:54;96862.09;;;15.11;56.71
75008;BME280;63554;48.940;12.050;2023-03-23T10:04:02;96855.72;;;15.00;53.49
75008;BME280;63554;48.940;12.050;2023-03-23T10:08:10;96855.41;;;14.97;53.80
75008;BME280;63554;48.940;12.050;2023-03-23T10:12:21;96846.06;;;14.88;52.24
75008;BME280;63554;48.940;12.050;2023-03-23T10:16:25;96853.78;;;14.96;53.06
75008;BME280;63554;48.940;12.050;2023-03-23T10:20:33;96854.91;;;15.00;51.31
75008;BME280;63554;48.940;12.050;2023-03-23T10:24:41;96865.50;;;14.96;51.94
75008;BME280;63554;48.940;12.050;2023-03-23T10:28:50;96872.63;;;15.02;52.23
75008;BME280;63554;48.940;12.050;2023-03-23T10:32:56;96868.09;;;15.13;51.71
75008;BME280;63554;48.940;12.050;2023-03-23T10:37:01;96861.09;;;15.28;51.62
75008;BME280;63554;48.940;12.050;2023-03-23T10:41:05;96863.09;;;15.42;51.17
75008;BME280;63554;48.940;12.050;2023-03-23T10:45:17;96856.59;;;15.49;49.81
75008;BME280;63554;48.940;12.050;2023-03-23T10:49:22;96856.59;;;15.49;50.31
75008;BME280;63554;48.940;12.050;2023-03-23T10:53:30;96860.31;;;15.75;49.39
75008;BME280;63554;48.940;12.050;2023-03-23T10:57:35;96857.41;;;15.97;49.30
75008;BME280;63554;48.940;12.050;2023-03-23T11:01:38;96853.38;;;16.15;48.95
75008;BME280;63554;48.940;12.050;2023-03-23T11:05:43;96850.19;;;16.33;48.32
75008;BME280;63554;48.940;12.050;2023-03-23T11:09:52;96849.91;;;16.40;47.58
75008;BME280;63554;48.940;12.050;2023-03-23T11:13:57;96841.22;;;16.58;47.99
75008;BME280;63554;48.940;12.050;2023-03-23T11:18:02;96848.06;;;16.76;47.55
75008;BME280;63554;48.940;12.050;2023-03-23T11:22:07;96841.50;;;16.77;47.05
75008;BME280;63554;48.940;12.050;2023-03-23T11:26:13;96845.88;;;17.25;45.56
75008;BME280;63554;48.940;12.050;2023-03-23T11:30:22;96856.03;;;17.09;45.31
75008;BME280;63554;48.940;12.050;2023-03-23T11:34:33;96861.50;;;16.88;44.29
75008;BME280;63554;48.940;12.050;2023-03-23T11:38:36;96867.50;;;16.95;44.46
75008;BME280;63554;48.940;12.050;2023-03-23T11:42:42;96856.31;;;17.12;44.14
75008;BME280;63554;48.940;12.050;2023-03-23T11:46:53;96861.78;;;17.07;44.21
75008;BME280;63554;48.940;12.050;2023-03-23T11:51:01;96858.50;;;16.90;44.22
75008;BME280;63554;48.940;12.050;2023-03-23T11:55:11;96857.41;;;17.06;44.10
75008;BME280;63554;48.940;12.050;2023-03-23T11:59:17;96850.28;;;17.00;44.75
75008;BME280;63554;48.940;12.050;2023-03-23T12:03:20;96854.09;;;17.14;44.77
75008;BME280;63554;48.940;12.050;2023-03-23T12:07:38;96845.91;;;16.99;44.47
75008;BME280;63554;48.940;12.050;2023-03-23T12:11:52;96856.31;;;16.87;45.07
75008;BME280;63554;48.940;12.050;2023-03-23T12:16:06;96854.66;;;16.91;44.84
75008;BME280;63554;48.940;12.050;2023-03-23T12:20:22;96855.19;;;16.93;45.01
75008;BME280;63554;48.940;12.050;2023-03-23T12:24:39;96855.78;;;16.90;45.79
75008;BME280;63554;48.940;12.050;2023-03-23T12:28:54;96846.47;;;16.91;46.17
75008;BME280;63554;48.940;12.050;2023-03-23T12:33:09;96848.63;;;16.84;46.33
75008;BME280;63554;48.940;12.050;2023-03-23T12:37:28;96838.28;;;16.86;45.77
75008;BME280;63554;48.940;12.050;2023-03-23T12:41:41;96846.19;;;16.87;46.91
75008;BME280;63554;48.940;12.050;2023-03-23T12:45:50;96846.19;;;16.87;46.68
75008;BME280;63554;48.940;12.050;2023-03-23T12:49:55;96843.13;;;16.63;46.54
75008;BME280;63554;48.940;12.050;2023-03-23T12:54:03;96848.56;;;16.48;47.45
75008;BME280;63554;48.940;12.050;2023-03-23T12:58:13;96856.75;;;16.43;47.51
75008;BME280;63554;48.940;12.050;2023-03-23T13:02:21;96849.88;;;16.30;47.38
75008;BME280;63554;48.940;12.050;2023-03-23T13:06:30;96845.50;;;16.24;48.08
75008;BME280;63554;48.940;12.050;2023-03-23T13:10:38;96838.41;;;16.17;48.13
75008;BME280;63554;48.940;12.050;2023-03-23T13:14:50;96845.78;;;16.22;48.41
75008;BME280;63554;48.940;12.050;2023-03-23T13:19:04;96855.00;;;16.11;48.86
75008;BME280;63554;48.940;12.050;2023-03-23T13:23:11;96845.22;;;16.20;49.59
75008;BME280;63554;48.940;12.050;2023-03-23T13:27:16;96840.56;;;16.20;49.14
75008;BME280;63554;48.940;12.050;2023-03-23T13:31:22;96839.78;;;16.30;49.62
75008;BME280;63554;48.940;12.050;2023-03-23T13:35:34;96844.16;;;16.36;49.00
75008;BME280;63554;48.940;12.050;2023-03-23T13:39:47;96834.09;;;16.47;48.79
75008;BME280;63554;48.940;12.050;2023-03-23T13:43:50;96821.28;;;16.68;49.09
75008;BME280;63554;48.940;12.050;2023-03-23T13:48:04;96828.13;;;16.76;48.25
75008;BME280;63554;48.940;12.050;2023-03-23T13:52:16;96824.88;;;16.84;49.25
75008;BME280;63554;48.940;12.050;2023-03-23T13:56:20;96823.50;;;17.02;48.06
75008;BME280;63554;48.940;12.050;2023-03-23T14:00:36;96819.13;;;17.11;47.78
75008;BME280;63554;48.940;12.050;2023-03-23T14:04:40;96819.38;;;17.15;47.72
75008;BME280;63554;48.940;12.050;2023-03-23T14:08:43;96809.28;;;17.10;47.82
75008;BME280;63554;48.940;12.050;2023-03-23T14:12:48;96816.94;;;16.98;47.60
75008;BME280;63554;48.940;12.050;2023-03-23T14:16:52;96819.91;;;16.81;47.92
75008;BME280;63554;48.940;12.050;2023-03-23T14:20:55;96818.28;;;16.65;48.52
75008;BME280;63554;48.940;12.050;2023-03-23T14:24:59;96808.13;;;16.60;48.36
75008;BME280;63554;48.940;12.050;2023-03-23T14:29:03;96812.78;;;16.49;48.52
75008;BME280;63554;48.940;12.050;2023-03-23T14:33:06;96807.06;;;16.51;48.27
75008;BME280;63554;48.940;12.050;2023-03-23T14:37:11;96810.59;;;16.61;48.37
75008;BME280;63554;48.940;12.050;2023-03-23T14:41:14;96812.78;;;16.44;48.90
75008;BME280;63554;48.940;12.050;2023-03-23T14:45:17;96793.66;;;16.44;49.11
75008;BME280;63554;48.940;12.050;2023-03-23T14:49:26;96805.97;;;16.47;48.99
75008;BME280;63554;48.940;12.050;2023-03-23T14:53:33;96799.41;;;16.48;49.34
75008;BME280;63554;48.940;12.050;2023-03-23T14:57:35;96803.22;;;16.47;49.21
75008;BME280;63554;48.940;12.050;2023-03-23T15:01:42;96794.75;;;16.53;49.61
75008;BME280;63554;48.940;12.050;2023-03-23T15:05:46;96804.63;;;16.54;49.25
75008;BME280;63554;48.940;12.050;2023-03-23T15:09:50;96796.66;;;16.58;49.42
75008;BME280;63554;48.940;12.050;2023-03-23T15:13:54;96795.84;;;16.57;49.51
75008;BME280;63554;48.940;12.050;2023-03-23T15:17:59;96795.88;;;16.63;49.78
75008;BME280;63554;48.940;12.050;2023-03-23T15:22:06;96789.03;;;16.65;49.23
75008;BME280;63554;48.940;12.050;2023-03-23T15:26:23;96793.41;;;16.61;49.22
75008;BME280;63554;48.940;12.050;2023-03-23T15:30:33;96797.22;;;16.55;49.41
75008;BME280;63554;48.940;12.050;2023-03-23T15:34:35;96803.47;;;16.50;49.46
75008;BME280;63554;48.940;12.050;2023-03-23T15:38:43;96804.03;;;16.47;49.51
75008;BME280;63554;48.940;12.050;2023-03-23T15:42:47;96805.13;;;16.46;49.53
75008;BME280;63554;48.940;12.050;2023-03-23T15:46:50;96796.13;;;16.46;50.01
75008;BME280;63554;48.940;12.050;2023-03-23T15:50:52;96803.22;;;16.47;50.38
75008;BME280;63554;48.940;12.050;2023-03-23T15:54:54;96801.56;;;16.46;50.59
75008;BME280;63554;48.940;12.050;2023-03-23T15:58:58;96806.78;;;16.47;49.85
75008;BME280;63554;48.940;12.050;2023-03-23T16:03:04;96802.66;;;16.39;50.53
75008;BME280;63554;48.940;12.050;2023-03-23T16:07:07;96804.03;;;16.32;50.60
75008;BME280;63554;48.940;12.050;2023-03-23T16:11:16;96806.72;;;16.27;50.69
75008;BME280;63554;48.940;12.050;2023-03-23T16:15:21;96787.34;;;16.23;51.06
75008;BME280;63554;48.940;12.050;2023-03-23T16:19:23;96788.16;;;16.24;51.32
75008;BME280;63554;48.940;12.050;2023-03-23T16:23:26;96781.06;;;16.23;51.19
75008;BME280;63554;48.940;12.050;2023-03-23T16:27:29;96781.88;;;16.18;51.50
75008;BME280;63554;48.940;12.050;2023-03-23T16:31:33;96784.59;;;16.13;51.41
75008;BME280;63554;48.940;12.050;2023-03-23T16:35:36;96795.50;;;16.08;51.47
75008;BME280;63554;48.940;12.050;2023-03-23T16:39:39;96790.84;;;16.03;51.70
75008;BME280;63554;48.940;12.050;2023-03-23T16:43:41;96784.53;;;15.97;52.14
75008;BME280;63554;48.940;12.050;2023-03-23T16:47:46;96795.19;;;15.94;52.28
75008;BME280;63554;48.940;12.050;2023-03-23T16:51:49;96796.81;;;15.90;52.35
75008;BME280;63554;48.940;12.050;2023-03-23T16:55:51;96800.88;;;15.82;52.92
75008;BME280;63554;48.940;12.050;2023-03-23T16:59:58;96796.22;;;15.77;53.09
75008;BME280;63554;48.940;12.050;2023-03-23T17:04:02;96795.31;;;15.72;53.45
75008;BME280;63554;48.940;12.050;2023-03-23T17:08:06;96799.38;;;15.64;54.01
75008;BME280;63554;48.940;12.050;2023-03-23T17:12:08;96799.13;;;15.60;53.86
75008;BME280;63554;48.940;12.050;2023-03-23T17:16:11;96804.53;;;15.55;54.04
75008;BME280;63554;48.940;12.050;2023-03-23T17:20:15;96803.44;;;15.51;54.35
75008;BME280;63554;48.940;12.050;2023-03-23T17:24:18;96812.13;;;15.48;54.50
75008;BME280;63554;48.940;12.050;2023-03-23T17:28:21;96815.66;;;15.43;54.28
75008;BME280;63554;48.940;12.050;2023-03-23T17:32:24;96818.63;;;15.37;54.70
75008;BME280;63554;48.940;12.050;2023-03-23T17:36:28;96814.22;;;15.31;54.82
75008;BME280;63554;48.940;12.050;2023-03-23T17:40:31;96811.22;;;15.27;55.35
75008;BME280;63554;48.940;12.050;2023-03-23T17:44:34;96809.81;;;15.25;55.51
75008;BME280;63554;48.940;12.050;2023-03-23T17:48:37;96807.88;;;15.20;55.80
75008;BME280;63554;48.940;12.050;2023-03-23T17:52:41;96814.91;;;15.11;56.11
75008;BME280;63554;48.940;12.050;2023-03-23T17:56:45;96811.59;;;15.03;56.62
75008;BME280;63554;48.940;12.050;2023-03-23T18:00:48;96832.22;;;14.94;58.34
75008;BME280;63554;48.940;12.050;2023-03-23T18:04:50;96832.66;;;14.81;60.02
75008;BME280;63554;48.940;12.050;2023-03-23T18:08:55;96836.66;;;14.68;60.11
75008;BME280;63554;48.940;12.050;2023-03-23T18:12:58;96827.66;;;14.68;62.98
75008;BME280;63554;48.940;12.050;2023-03-23T18:17:01;96836.06;;;14.66;62.47
75008;BME280;63554;48.940;12.050;2023-03-23T18:21:05;96833.31;;;14.61;62.47
75008;BME280;63554;48.940;12.050;2023-03-23T18:25:10;96830.19;;;14.52;62.33
75008;BME280;63554;48.940;12.050;2023-03-23T18:29:12;96821.44;;;14.45;60.89
75008;BME280;63554;48.940;12.050;2023-03-23T18:33:17;96835.78;;;14.40;62.94
75008;BME280;63554;48.940;12.050;2023-03-23T18:37:20;96834.94;;;14.35;65.43
75008;BME280;63554;48.940;12.050;2023-03-23T18:41:25;96831.22;;;14.19;66.92
75008;BME280;63554;48.940;12.050;2023-03-23T18:45:28;96831.00;;;13.98;69.30
75008;BME280;63554;48.940;12.050;2023-03-23T18:49:31;96825.59;;;13.76;70.33
75008;BME280;63554;48.940;12.050;2023-03-23T18:53:34;96817.09;;;13.51;70.71
75008;BME280;63554;48.940;12.050;2023-03-23T18:57:39;96811.78;;;13.22;71.86
75008;BME280;63554;48.940;12.050;2023-03-23T19:01:41;96806.44;;;12.93;72.50
75008;BME280;63554;48.940;12.050;2023-03-23T19:05:44;96807.44;;;12.87;72.29
75008;BME280;63554;48.940;12.050;2023-03-23T19:09:47;96808.69;;;12.96;69.58
75008;BME280;63554;48.940;12.050;2023-03-23T19:13:51;96806.81;;;13.19;66.63
75008;BME280;63554;48.940;12.050;2023-03-23T19:18:03;96815.47;;;13.33;65.81
75008;BME280;63554;48.940;12.050;2023-03-23T19:22:06;96825.66;;;13.42;64.82
75008;BME280;63554;48.940;12.050;2023-03-23T19:26:16;96823.03;;;13.48;64.79
75008;BME280;63554;48.940;12.050;2023-03-23T19:30:22;96820.13;;;13.54;63.63
75008;BME280;63554;48.940;12.050;2023-03-23T19:34:25;96809.25;;;13.54;63.45
75008;BME280;63554;48.940;12.050;2023-03-23T19:38:29;96803.56;;;13.56;63.32
75008;BME280;63554;48.940;12.050;2023-03-23T19:42:31;96807.69;;;13.58;63.48
75008;BME280;63554;48.940;12.050;2023-03-23T19:46:36;96807.94;;;13.57;62.46
75008;BME280;63554;48.940;12.050;2023-03-23T19:50:39;96811.97;;;13.54;62.89
75008;BME280;63554;48.940;12.050;2023-03-23T19:54:42;96805.38;;;13.50;62.96
75008;BME280;63554;48.940;12.050;2023-03-23T19:58:45;96812.16;;;13.48;62.71
75008;BME280;63554;48.940;12.050;2023-03-23T20:02:49;96806.97;;;13.46;62.11
75008;BME280;63554;48.940;12.050;2023-03-23T20:06:53;96806.72;;;13.48;61.86
75008;BME280;63554;48.940;12.050;2023-03-23T20:11:01;96809.69;;;13.46;61.71
75008;BME280;63554;48.940;12.050;2023-03-23T20:15:06;96815.44;;;13.50;61.37
75008;BME280;63554;48.940;12.050;2023-03-23T20:19:10;96814.88;;;13.48;61.61
75008;BME280;63554;48.940;12.050;2023-03-23T20:23:12;96806.72;;;13.48;61.12
75008;BME280;63554;48.940;12.050;2023-03-23T20:27:16;96814.38;;;13.51;61.15
75008;BME280;63554;48.940;12.050;2023-03-23T20:31:21;96817.91;;;13.51;60.85
75008;BME280;63554;48.940;12.050;2023-03-23T20:35:26;96817.91;;;13.51;60.71
75008;BME280;63554;48.940;12.050;2023-03-23T20:39:31;96819.53;;;13.52;60.72
75008;BME280;63554;48.940;12.050;2023-03-23T20:43:34;96813.53;;;13.50;60.58
75008;BME280;63554;48.940;12.050;2023-03-23T20:47:37;96817.09;;;13.51;61.08
75008;BME280;63554;48.940;12.050;2023-03-23T20:51:41;96811.91;;;13.49;61.27
75008;BME280;63554;48.940;12.050;2023-03-23T20:55:45;96819.53;;;13.52;60.79
75008;BME280;63554;48.940;12.050;2023-03-23T20:59:48;96814.69;;;13.54;60.85
75008;BME280;63554;48.940;12.050;2023-03-23T21:03:51;96822.59;;;13.56;61.02
75008;BME280;63554;48.940;12.050;2023-03-23T21:07:55;96816.81;;;13.52;60.76
75008;BME280;63554;48.940;12.050;2023-03-23T21:11:58;96818.25;;;13.55;60.84
75008;BME280;63554;48.940;12.050;2023-03-23T21:16:02;96809.75;;;13.51;60.92
75008;BME280;63554;48.940;12.050;2023-03-23T21:20:07;96820.88;;;13.50;61.14
75008;BME280;63554;48.940;12.050;2023-03-23T21:24:12;96811.66;;;13.51;60.82